Time;durP1;ratioP1;P1;durP2;ratioP2;P2;SDS_P1;SDS_P2;PMS_P1;PMS_P2;Temp;Humidity;BMP_temperature;BMP_pressure;BME280_temperature;BME280_humidity;BME280_pressure;Samples;Min_cycle;Max_cycle;Signal;HPM_P1;HPM_P2
2021/04/23 00:00:55;;;;;;;;;;;17.00;54.00;;;;;;5095690;28;20050;-70
2021/04/23 00:03:26;;;;;;;;;;;17.00;54.10;;;;;;5073628;28;20376;-70
2021/04/23 00:05:58;;;;;;;;;;;16.80;54.70;;;;;;5073529;28;19913;-70
2021/04/23 00:08:24;;;;;;;;;;;16.80;55.00;;;;;;5075805;28;19912;-70
2021/04/23 00:10:55;;;;;;;;;;;16.80;54.70;;;;;;5079638;28;20329;-70
2021/04/23 00:13:21;;;;;;;;;;;16.80;55.20;;;;;;5088944;28;19916;-70
2021/04/23 00:15:48;;;;;;;;;;;16.70;54.60;;;;;;5079009;28;20395;-70
2021/04/23 00:18:14;;;;;;;;;;;16.60;54.50;;;;;;5075540;28;20012;-70
2021/04/23 00:20:40;;;;;;;;;;;16.50;55.00;;;;;;5077176;28;19920;-70
2021/04/23 00:23:07;;;;;;;;;;;16.40;54.80;;;;;;5073120;28;19920;-70
2021/04/23 00:25:33;;;;;;;;;;;16.10;55.50;;;;;;5075404;28;19923;-70
2021/04/23 00:28:00;;;;;;;;;;;16.10;55.40;;;;;;5070654;28;19913;-70
2021/04/23 00:30:28;;;;;;;;;;;16.10;55.60;;;;;;5076126;28;19920;-71
2021/04/23 00:32:54;;;;;;;;;;;16.00;56.10;;;;;;5063990;28;19935;-70
2021/04/23 00:35:24;;;;;;;;;;;16.10;56.00;;;;;;5059940;28;19931;-71
2021/04/23 00:37:51;;;;;;;;;;;16.00;56.70;;;;;;5075293;28;19920;-71
2021/04/23 00:40:19;;;;;;;;;;;15.60;57.10;;;;;;5075260;28;19922;-70
2021/04/23 00:42:45;;;;;;;;;;;15.80;57.00;;;;;;5073767;28;20015;-70
2021/04/23 00:45:12;;;;;;;;;;;15.70;57.20;;;;;;5079697;28;19909;-70
2021/04/23 00:47:38;;;;;;;;;;;15.70;57.10;;;;;;5076270;28;19909;-70
2021/04/23 00:50:05;;;;;;;;;;;15.60;57.00;;;;;;5073425;28;20015;-70
2021/04/23 00:52:31;;;;;;;;;;;15.50;57.90;;;;;;5070721;28;19938;-70
2021/04/23 00:54:57;;;;;;;;;;;15.40;58.50;;;;;;5075857;28;19920;-70
2021/04/23 00:57:23;;;;;;;;;;;15.50;58.30;;;;;;5066801;28;19957;-70
2021/04/23 00:59:49;;;;;;;;;;;15.20;58.50;;;;;;5076083;28;19913;-70
2021/04/23 01:02:15;;;;;;;;;;;15.30;58.60;;;;;;5073228;28;19921;-70
2021/04/23 01:04:42;;;;;;;;;;;15.20;58.80;;;;;;5074017;28;19912;-70
2021/04/23 01:07:09;;;;;;;;;;;15.10;58.40;;;;;;5069729;28;19913;-70
2021/04/23 01:09:35;;;;;;;;;;;15.00;58.70;;;;;;5059761;28;19916;-70
2021/04/23 01:12:04;;;;;;;;;;;15.10;58.50;;;;;;5074921;28;19922;-71
2021/04/23 01:14:31;;;;;;;;;;;15.00;58.90;;;;;;5074614;28;19962;-70
2021/04/23 01:16:57;;;;;;;;;;;14.90;59.00;;;;;;5074670;28;19924;-70
2021/04/23 01:19:24;;;;;;;;;;;14.90;59.30;;;;;;5083621;28;20307;-70
2021/04/23 01:21:50;;;;;;;;;;;14.80;58.80;;;;;;5055339;28;20274;-70
2021/04/23 01:24:19;;;;;;;;;;;14.80;58.70;;;;;;5072241;28;19931;-70
2021/04/23 01:26:48;;;;;;;;;;;14.70;59.70;;;;;;5071749;28;19916;-71
2021/04/23 01:29:16;;;;;;;;;;;14.70;59.30;;;;;;5065831;28;19913;-70
2021/04/23 01:31:44;;;;;;;;;;;14.80;58.60;;;;;;5071324;28;19913;-70
2021/04/23 01:34:15;;;;;;;;;;;14.80;58.50;;;;;;5074026;28;19962;-70
2021/04/23 01:36:42;;;;;;;;;;;14.80;58.40;;;;;;5070884;28;20379;-70
2021/04/23 01:39:09;;;;;;;;;;;14.60;59.20;;;;;;5069729;28;19920;-70
2021/04/23 01:41:35;;;;;;;;;;;14.70;59.10;;;;;;5071223;28;19916;-70
2021/04/23 01:44:03;;;;;;;;;;;14.60;59.30;;;;;;5077811;28;19970;-70
2021/04/23 01:46:33;;;;;;;;;;;14.30;60.00;;;;;;5074883;28;19912;-70
2021/04/23 01:49:04;;;;;;;;;;;14.30;59.90;;;;;;5073155;28;19912;-70
2021/04/23 01:51:30;;;;;;;;;;;14.40;60.10;;;;;;5071021;28;19916;-70
2021/04/23 01:53:56;;;;;;;;;;;14.30;60.30;;;;;;5072280;28;19917;-70
2021/04/23 01:56:22;;;;;;;;;;;14.30;60.50;;;;;;5071653;28;20380;-70
2021/04/23 01:58:48;;;;;;;;;;;14.40;60.60;;;;;;5070608;28;19959;-70
2021/04/23 02:01:14;;;;;;;;;;;14.50;60.70;;;;;;5072288;28;19920;-71
2021/04/23 02:03:41;;;;;;;;;;;14.40;60.70;;;;;;5073262;28;19912;-70
2021/04/23 02:06:09;;;;;;;;;;;14.30;60.40;;;;;;5072872;28;20585;-71
2021/04/23 02:08:35;;;;;;;;;;;14.30;60.70;;;;;;5073538;28;20402;-71
2021/04/23 02:11:09;;;;;;;;;;;14.30;61.20;;;;;;5074716;28;19920;-73
2021/04/23 02:13:36;;;;;;;;;;;14.20;60.90;;;;;;5067562;28;20358;-70
2021/04/23 02:16:02;;;;;;;;;;;14.20;60.90;;;;;;5075180;28;19923;-70
2021/04/23 02:18:29;;;;;;;;;;;14.20;60.90;;;;;;5071079;28;19921;-72
2021/04/23 02:20:55;;;;;;;;;;;14.00;61.10;;;;;;5066491;28;19925;-70
2021/04/23 02:23:21;;;;;;;;;;;14.00;61.00;;;;;;5071361;28;19913;-69
2021/04/23 02:25:48;;;;;;;;;;;14.10;60.90;;;;;;5072286;28;20412;-69
2021/04/23 02:28:16;;;;;;;;;;;14.00;61.00;;;;;;5071898;28;20024;-69
2021/04/23 02:30:44;;;;;;;;;;;13.90;61.70;;;;;;5069369;28;19920;-70
2021/04/23 02:33:15;;;;;;;;;;;14.00;61.30;;;;;;5073913;28;19912;-71
2021/04/23 02:35:41;;;;;;;;;;;14.00;61.70;;;;;;5073666;28;19935;-72
2021/04/23 02:38:08;;;;;;;;;;;13.90;61.70;;;;;;5073074;28;19912;-72
2021/04/23 02:40:34;;;;;;;;;;;14.00;61.60;;;;;;5072465;28;19974;-72
2021/04/23 02:43:03;;;;;;;;;;;13.90;61.30;;;;;;5073948;28;20425;-72
2021/04/23 02:45:31;;;;;;;;;;;14.00;61.40;;;;;;5072480;28;19916;-72
2021/04/23 02:47:57;;;;;;;;;;;13.90;61.40;;;;;;5073647;28;19962;-72
2021/04/23 02:50:26;;;;;;;;;;;13.80;62.30;;;;;;5098942;28;19912;-73
2021/04/23 02:52:52;;;;;;;;;;;14.00;61.90;;;;;;5070918;28;19912;-71
2021/04/23 02:55:18;;;;;;;;;;;13.80;62.40;;;;;;5068242;28;19913;-70
2021/04/23 02:58:02;;;;;;;;;;;13.90;62.10;;;;;;5077503;28;20014;-70
2021/04/23 03:00:30;;;;;;;;;;;13.80;62.40;;;;;;5082887;28;19912;-70
2021/04/23 03:02:56;;;;;;;;;;;13.70;62.50;;;;;;5073554;28;19921;-71
2021/04/23 03:05:23;;;;;;;;;;;13.80;62.70;;;;;;5073600;28;19938;-70
2021/04/23 03:07:50;;;;;;;;;;;13.80;62.60;;;;;;5090892;28;19912;-70
2021/04/23 03:10:17;;;;;;;;;;;13.80;62.50;;;;;;5079600;28;19952;-70
2021/04/23 03:12:43;;;;;;;;;;;13.80;62.50;;;;;;5086594;28;19908;-70
2021/04/23 03:15:09;;;;;;;;;;;14.00;62.50;;;;;;5094569;28;19920;-70
2021/04/23 03:17:36;;;;;;;;;;;13.90;61.90;;;;;;5077360;28;19924;-71
2021/04/23 03:20:09;;;;;;;;;;;13.80;62.30;;;;;;5077689;28;20006;-71
2021/04/23 03:22:35;;;;;;;;;;;13.70;62.30;;;;;;5076915;28;19913;-70
2021/04/23 03:25:01;;;;;;;;;;;13.70;62.70;;;;;;5079900;28;20041;-70
2021/04/23 03:27:27;;;;;;;;;;;13.70;63.00;;;;;;5076835;28;19912;-70
2021/04/23 03:29:53;;;;;;;;;;;13.70;62.50;;;;;;5072006;28;20269;-70
2021/04/23 03:32:19;;;;;;;;;;;13.90;62.40;;;;;;5076514;28;19981;-70
2021/04/23 03:34:45;;;;;;;;;;;13.70;62.00;;;;;;5095609;28;20736;-70
2021/04/23 03:37:11;;;;;;;;;;;13.60;62.60;;;;;;5070404;28;19916;-70
2021/04/23 03:39:37;;;;;;;;;;;13.70;62.30;;;;;;5075676;28;20520;-70
2021/04/23 03:42:03;;;;;;;;;;;13.70;63.00;;;;;;5074203;28;19920;-71
2021/04/23 03:44:29;;;;;;;;;;;13.70;62.80;;;;;;5074321;28;19912;-70
2021/04/23 03:46:57;;;;;;;;;;;13.50;63.60;;;;;;5080312;28;19974;-70
2021/04/23 03:49:23;;;;;;;;;;;13.60;63.20;;;;;;5076698;28;19965;-70
2021/04/23 03:51:49;;;;;;;;;;;13.50;62.90;;;;;;5080183;28;19915;-70
2021/04/23 03:54:15;;;;;;;;;;;13.60;62.80;;;;;;5076784;28;19966;-70
2021/04/23 03:56:42;;;;;;;;;;;13.60;63.30;;;;;;5076216;28;19928;-70
2021/04/23 03:59:08;;;;;;;;;;;13.50;63.30;;;;;;5056898;28;20015;-69
2021/04/23 04:01:34;;;;;;;;;;;13.70;62.70;;;;;;5073358;28;20015;-70
2021/04/23 04:04:01;;;;;;;;;;;13.60;63.30;;;;;;5075051;28;19922;-70
2021/04/23 04:06:27;;;;;;;;;;;13.60;63.00;;;;;;5074821;28;19939;-70
2021/04/23 04:08:53;;;;;;;;;;;13.80;62.40;;;;;;5104532;28;20564;-70
2021/04/23 04:11:19;;;;;;;;;;;13.90;62.40;;;;;;5077250;28;20354;-70
2021/04/23 04:13:46;;;;;;;;;;;13.70;62.10;;;;;;5073948;28;19920;-70
2021/04/23 04:16:12;;;;;;;;;;;13.60;62.90;;;;;;5070304;28;19921;-70
2021/04/23 04:18:38;;;;;;;;;;;13.70;62.80;;;;;;5072722;28;19912;-70
2021/04/23 04:21:04;;;;;;;;;;;13.60;63.10;;;;;;5075337;28;19920;-70
2021/04/23 04:23:30;;;;;;;;;;;13.40;63.70;;;;;;5066163;28;20327;-70
2021/04/23 04:25:58;;;;;;;;;;;13.60;63.40;;;;;;5063955;28;19913;-70
2021/04/23 04:28:25;;;;;;;;;;;13.70;63.00;;;;;;5073553;28;19912;-70
2021/04/23 04:30:51;;;;;;;;;;;13.50;62.80;;;;;;5072827;28;19924;-70
2021/04/23 04:33:17;;;;;;;;;;;13.60;63.10;;;;;;5070732;28;19927;-70
2021/04/23 04:35:44;;;;;;;;;;;13.70;62.50;;;;;;5074920;28;19916;-70
2021/04/23 04:38:11;;;;;;;;;;;13.60;63.40;;;;;;5099975;28;19955;-70
2021/04/23 04:40:41;;;;;;;;;;;13.60;62.70;;;;;;5072296;28;20266;-69
2021/04/23 04:43:08;;;;;;;;;;;13.60;63.00;;;;;;5074738;28;19963;-72
2021/04/23 04:45:35;;;;;;;;;;;13.70;62.80;;;;;;5089102;28;19926;-70
2021/04/23 04:48:02;;;;;;;;;;;13.80;62.30;;;;;;5082738;28;19974;-70
2021/04/23 04:50:39;;;;;;;;;;;13.80;62.40;;;;;;5071050;28;19919;-70
2021/04/23 04:53:07;;;;;;;;;;;13.70;62.20;;;;;;5071633;28;20337;-70
2021/04/23 04:55:35;;;;;;;;;;;13.80;62.40;;;;;;5074126;28;19955;-70
2021/04/23 04:58:01;;;;;;;;;;;13.60;62.50;;;;;;5073684;28;19928;-70
2021/04/23 05:00:28;;;;;;;;;;;13.70;62.90;;;;;;5064255;28;19919;-69
2021/04/23 05:02:54;;;;;;;;;;;13.60;62.70;;;;;;5075846;28;19920;-70
2021/04/23 05:05:21;;;;;;;;;;;13.70;63.20;;;;;;5075508;28;20003;-70
2021/04/23 05:07:47;;;;;;;;;;;13.80;62.50;;;;;;5075303;28;20247;-70
2021/04/23 05:10:13;;;;;;;;;;;13.70;62.40;;;;;;5073061;28;19912;-70
2021/04/23 05:12:42;;;;;;;;;;;13.60;62.70;;;;;;5073503;28;19924;-70
2021/04/23 05:15:09;;;;;;;;;;;13.70;62.80;;;;;;5074384;28;19913;-70
2021/04/23 05:17:35;;;;;;;;;;;13.60;62.60;;;;;;5075181;28;20399;-69
2021/04/23 05:20:05;;;;;;;;;;;13.70;62.90;;;;;;5073989;28;19999;-70
2021/04/23 05:22:35;;;;;;;;;;;13.80;62.70;;;;;;5072883;28;19920;-70
2021/04/23 05:25:01;;;;;;;;;;;13.80;62.30;;;;;;5074153;28;19912;-70
2021/04/23 05:27:27;;;;;;;;;;;13.60;63.00;;;;;;5074774;28;19963;-70
2021/04/23 05:29:53;;;;;;;;;;;13.70;63.30;;;;;;5073929;28;19919;-70
2021/04/23 05:32:20;;;;;;;;;;;13.80;62.60;;;;;;5072560;28;19912;-70
2021/04/23 05:34:47;;;;;;;;;;;13.80;62.00;;;;;;5085462;28;20023;-70
2021/04/23 05:37:14;;;;;;;;;;;13.70;62.80;;;;;;5078284;28;19966;-69
2021/04/23 05:39:43;;;;;;;;;;;13.70;62.90;;;;;;5074921;28;19912;-70
2021/04/23 05:42:09;;;;;;;;;;;13.60;62.90;;;;;;5074963;28;20003;-70
2021/04/23 05:44:35;;;;;;;;;;;13.60;62.70;;;;;;5074415;28;19921;-70
2021/04/23 05:47:02;;;;;;;;;;;13.70;62.80;;;;;;5074927;28;19975;-70
2021/04/23 05:49:28;;;;;;;;;;;13.70;62.60;;;;;;5075036;28;20330;-70
2021/04/23 05:51:54;;;;;;;;;;;13.80;62.40;;;;;;5074971;28;20346;-70
2021/04/23 05:54:20;;;;;;;;;;;13.70;62.70;;;;;;5075154;28;19913;-70
2021/04/23 05:56:46;;;;;;;;;;;13.90;62.30;;;;;;5074273;28;20004;-70
2021/04/23 05:59:12;;;;;;;;;;;13.80;62.10;;;;;;5074871;28;20326;-70
2021/04/23 06:01:38;;;;;;;;;;;14.00;61.80;;;;;;5072905;28;19912;-70
2021/04/23 06:04:04;;;;;;;;;;;13.80;62.20;;;;;;5079859;28;19912;-70
2021/04/23 06:06:30;;;;;;;;;;;13.80;62.00;;;;;;5081882;28;20381;-70
2021/04/23 06:08:57;;;;;;;;;;;13.70;62.40;;;;;;5092311;28;19916;-70
2021/04/23 06:11:24;;;;;;;;;;;13.60;63.00;;;;;;5081096;28;20211;-70
2021/04/23 06:13:50;;;;;;;;;;;13.50;63.00;;;;;;5064291;28;19913;-70
2021/04/23 06:16:16;;;;;;;;;;;13.60;63.00;;;;;;5120357;27;20048;-70
2021/04/23 06:18:43;;;;;;;;;;;13.60;63.40;;;;;;5068824;28;19921;-70
2021/04/23 06:21:12;;;;;;;;;;;13.90;62.60;;;;;;5070515;28;20066;-70
2021/04/23 06:23:38;;;;;;;;;;;13.90;62.90;;;;;;5067430;28;19916;-70
2021/04/23 06:26:05;;;;;;;;;;;13.90;62.20;;;;;;5072942;28;19959;-71
2021/04/23 06:28:31;;;;;;;;;;;13.90;62.00;;;;;;5070036;28;20290;-70
2021/04/23 06:30:57;;;;;;;;;;;13.90;62.30;;;;;;5072660;28;20334;-70
2021/04/23 06:33:27;;;;;;;;;;;13.90;62.20;;;;;;5065676;28;19912;-70
2021/04/23 06:35:54;;;;;;;;;;;13.70;62.70;;;;;;5099225;28;19913;-70
2021/04/23 06:38:20;;;;;;;;;;;13.60;63.40;;;;;;5073323;28;19913;-70
2021/04/23 06:40:47;;;;;;;;;;;13.60;63.30;;;;;;5072829;28;20369;-70
2021/04/23 06:43:13;;;;;;;;;;;13.60;63.80;;;;;;5071735;28;19963;-70
2021/04/23 06:45:39;;;;;;;;;;;13.50;63.90;;;;;;5070645;28;20353;-70
2021/04/23 06:48:09;;;;;;;;;;;13.50;63.80;;;;;;5073797;28;20338;-70
2021/04/23 06:50:35;;;;;;;;;;;13.80;63.40;;;;;;5077416;28;20304;-70
2021/04/23 06:53:02;;;;;;;;;;;13.80;63.00;;;;;;5074410;28;19909;-70
2021/04/23 06:55:28;;;;;;;;;;;13.90;62.60;;;;;;5071374;28;19913;-70
2021/04/23 06:57:54;;;;;;;;;;;13.80;63.10;;;;;;5056359;28;19931;-70
2021/04/23 07:00:22;;;;;;;;;;;13.90;62.80;;;;;;5072812;28;20007;-70
2021/04/23 07:02:48;;;;;;;;;;;13.80;63.40;;;;;;5071811;28;19913;-71
2021/04/23 07:05:14;;;;;;;;;;;13.70;63.30;;;;;;5066567;28;19974;-70
2021/04/23 07:07:41;;;;;;;;;;;13.70;64.00;;;;;;5074502;28;19908;-70
2021/04/23 07:10:09;;;;;;;;;;;13.70;63.50;;;;;;5065502;28;19955;-70
2021/04/23 07:12:35;;;;;;;;;;;13.60;64.30;;;;;;5106781;28;19909;-70
2021/04/23 07:15:02;;;;;;;;;;;13.70;64.00;;;;;;5072977;28;19973;-70
2021/04/23 07:17:28;;;;;;;;;;;13.80;64.20;;;;;;5061917;28;19928;-69
2021/04/23 07:19:54;;;;;;;;;;;13.80;64.00;;;;;;5070077;28;19912;-70
2021/04/23 07:22:20;;;;;;;;;;;13.70;64.10;;;;;;5071717;28;19912;-70
2021/04/23 07:24:46;;;;;;;;;;;13.60;64.00;;;;;;5072261;28;20007;-70
2021/04/23 07:27:12;;;;;;;;;;;13.70;64.30;;;;;;5073534;28;20432;-70
2021/04/23 07:29:38;;;;;;;;;;;13.80;63.60;;;;;;5073787;28;19913;-70
2021/04/23 07:32:04;;;;;;;;;;;13.70;63.80;;;;;;5073697;28;19962;-70
2021/04/23 07:34:30;;;;;;;;;;;13.70;64.00;;;;;;5072474;28;19913;-70
2021/04/23 07:36:56;;;;;;;;;;;13.80;64.10;;;;;;5070586;28;20249;-69
2021/04/23 07:39:26;;;;;;;;;;;13.80;63.70;;;;;;5071574;28;20330;-69
2021/04/23 07:41:55;;;;;;;;;;;13.70;64.30;;;;;;5073493;28;19916;-69
2021/04/23 07:44:22;;;;;;;;;;;13.90;63.70;;;;;;5069487;28;20266;-70
2021/04/23 07:46:48;;;;;;;;;;;13.80;63.90;;;;;;5073736;28;19920;-69
2021/04/23 07:49:14;;;;;;;;;;;13.70;63.70;;;;;;5069312;28;20249;-70
2021/04/23 07:51:41;;;;;;;;;;;13.70;64.30;;;;;;5075293;28;20257;-69
2021/04/23 07:54:08;;;;;;;;;;;13.70;64.40;;;;;;5075546;28;19922;-70
2021/04/23 07:56:36;;;;;;;;;;;13.50;64.60;;;;;;5074451;28;19916;-71
2021/04/23 07:59:03;;;;;;;;;;;13.70;64.50;;;;;;5074937;28;19920;-70
2021/04/23 08:01:29;;;;;;;;;;;13.50;64.90;;;;;;5071159;28;19920;-70
2021/04/23 08:03:55;;;;;;;;;;;13.70;64.50;;;;;;5076675;28;20062;-70
2021/04/23 08:06:21;;;;;;;;;;;13.50;64.60;;;;;;5069123;28;19944;-70
2021/04/23 08:08:47;;;;;;;;;;;13.60;64.70;;;;;;5094311;28;19924;-69
2021/04/23 08:11:13;;;;;;;;;;;13.50;65.30;;;;;;5076469;28;19912;-70
2021/04/23 08:13:39;;;;;;;;;;;13.70;65.10;;;;;;5075111;28;20251;-69
2021/04/23 08:16:05;;;;;;;;;;;13.60;64.70;;;;;;5076955;28;19951;-71
2021/04/23 08:18:35;;;;;;;;;;;13.80;64.30;;;;;;5075770;28;19924;-70
2021/04/23 08:21:01;;;;;;;;;;;13.70;64.70;;;;;;5076162;28;19965;-70
2021/04/23 08:23:28;;;;;;;;;;;13.80;64.50;;;;;;5074552;28;20030;-70
2021/04/23 08:25:56;;;;;;;;;;;13.80;64.40;;;;;;5072161;28;19912;-70
2021/04/23 08:28:25;;;;;;;;;;;14.00;63.90;;;;;;5075137;28;20362;-70
2021/04/23 08:30:51;;;;;;;;;;;13.80;64.10;;;;;;5073452;28;19920;-69
2021/04/23 08:33:18;;;;;;;;;;;13.90;64.50;;;;;;5071764;28;19959;-70
2021/04/23 08:35:45;;;;;;;;;;;13.70;64.60;;;;;;5061706;28;19927;-69
2021/04/23 08:38:11;;;;;;;;;;;13.70;64.70;;;;;;5074873;28;20517;-70
2021/04/23 08:40:37;;;;;;;;;;;13.70;65.00;;;;;;5075144;28;19909;-70
2021/04/23 08:43:03;;;;;;;;;;;13.80;65.10;;;;;;5075076;28;19916;-71
2021/04/23 08:45:29;;;;;;;;;;;13.80;64.30;;;;;;5075932;28;19912;-70
2021/04/23 08:47:57;;;;;;;;;;;13.70;64.60;;;;;;5066835;28;20422;-70
2021/04/23 08:50:25;;;;;;;;;;;13.70;64.90;;;;;;5075066;28;19919;-70
2021/04/23 08:52:52;;;;;;;;;;;13.80;65.10;;;;;;5074946;28;19960;-70
2021/04/23 08:55:27;;;;;;;;;;;13.90;64.40;;;;;;5063640;28;19974;-70
2021/04/23 08:57:54;;;;;;;;;;;13.80;64.70;;;;;;5063060;28;19916;-70
2021/04/23 09:00:20;;;;;;;;;;;13.80;64.60;;;;;;5074687;28;19939;-70
2021/04/23 09:02:46;;;;;;;;;;;13.80;64.90;;;;;;5074642;28;20341;-70
2021/04/23 09:05:13;;;;;;;;;;;13.80;64.60;;;;;;5074821;28;20237;-70
2021/04/23 09:07:39;;;;;;;;;;;14.10;64.40;;;;;;5075340;28;19913;-70
2021/04/23 09:10:07;;;;;;;;;;;14.10;64.00;;;;;;5074896;28;20265;-70
2021/04/23 09:12:33;;;;;;;;;;;13.80;64.60;;;;;;5074993;28;20397;-69
2021/04/23 09:15:01;;;;;;;;;;;14.00;64.30;;;;;;5074604;28;20338;-70
2021/04/23 09:17:27;;;;;;;;;;;14.10;64.40;;;;;;5074089;28;20370;-70
2021/04/23 09:19:54;;;;;;;;;;;14.00;64.30;;;;;;5064047;28;19958;-70
2021/04/23 09:22:22;;;;;;;;;;;13.80;64.60;;;;;;5070460;28;19930;-70
2021/04/23 09:24:54;;;;;;;;;;;13.80;64.90;;;;;;5074689;28;19912;-70
2021/04/23 09:27:21;;;;;;;;;;;13.80;64.80;;;;;;5074063;28;19915;-69
2021/04/23 09:29:50;;;;;;;;;;;13.90;64.80;;;;;;5074404;28;19994;-70
2021/04/23 09:32:18;;;;;;;;;;;13.90;65.30;;;;;;5073867;28;19928;-69
2021/04/23 09:34:47;;;;;;;;;;;13.90;64.70;;;;;;5072530;28;19924;-70
2021/04/23 09:37:13;;;;;;;;;;;13.90;65.00;;;;;;5074389;28;19967;-70
2021/04/23 09:39:39;;;;;;;;;;;13.90;64.40;;;;;;5067351;28;19919;-69
2021/04/23 09:42:11;;;;;;;;;;;13.90;65.10;;;;;;5074383;28;19951;-69
2021/04/23 09:44:39;;;;;;;;;;;14.00;64.60;;;;;;5060972;28;19966;-69
2021/04/23 09:47:13;;;;;;;;;;;14.00;64.60;;;;;;5074102;28;19920;-69
2021/04/23 09:49:43;;;;;;;;;;;13.90;64.40;;;;;;5073426;28;20062;-69
2021/04/23 09:52:11;;;;;;;;;;;13.90;64.80;;;;;;5104045;28;20283;-69
2021/04/23 09:54:37;;;;;;;;;;;14.00;64.80;;;;;;5067573;28;20403;-69
2021/04/23 09:57:14;;;;;;;;;;;14.00;65.00;;;;;;5074105;28;19939;-69
2021/04/23 09:59:48;;;;;;;;;;;14.10;64.50;;;;;;5072244;28;19919;-69
2021/04/23 10:02:15;;;;;;;;;;;14.00;64.40;;;;;;5070517;28;19970;-69
2021/04/23 10:04:41;;;;;;;;;;;13.90;65.00;;;;;;5068132;28;20269;-69
2021/04/23 10:07:12;;;;;;;;;;;14.20;64.60;;;;;;5072094;28;19966;-69
2021/04/23 10:09:49;;;;;;;;;;;14.10;64.40;;;;;;5073138;28;19951;-69
2021/04/23 10:12:28;;;;;;;;;;;13.90;64.60;;;;;;5072445;28;19995;-69
2021/04/23 10:14:57;;;;;;;;;;;13.70;65.30;;;;;;5064201;28;20016;-69
2021/04/23 10:17:24;;;;;;;;;;;13.70;66.20;;;;;;5073184;28;20246;-69
2021/04/23 10:19:50;;;;;;;;;;;13.60;65.80;;;;;;5074693;28;19916;-69
2021/04/23 10:22:16;;;;;;;;;;;13.80;65.90;;;;;;5067341;28;19916;-69
2021/04/23 10:24:43;;;;;;;;;;;13.80;65.30;;;;;;5067182;28;19935;-70
2021/04/23 10:27:09;;;;;;;;;;;14.00;65.00;;;;;;5054683;28;19916;-69
2021/04/23 10:29:36;;;;;;;;;;;13.90;64.90;;;;;;5065218;28;19912;-69
2021/04/23 10:32:04;;;;;;;;;;;14.00;65.20;;;;;;5073807;28;19944;-69
2021/04/23 10:34:32;;;;;;;;;;;14.00;64.80;;;;;;5073841;28;19913;-69
2021/04/23 10:36:58;;;;;;;;;;;13.90;65.20;;;;;;5071372;28;19960;-69
2021/04/23 10:39:25;;;;;;;;;;;13.90;65.40;;;;;;5072691;28;19920;-69
2021/04/23 10:41:51;;;;;;;;;;;14.00;65.00;;;;;;5093666;28;19917;-70
2021/04/23 10:44:19;;;;;;;;;;;13.90;65.30;;;;;;5073329;28;19924;-70
2021/04/23 10:46:52;;;;;;;;;;;14.00;64.80;;;;;;5074151;28;19913;-69
2021/04/23 10:49:18;;;;;;;;;;;14.00;64.80;;;;;;5071754;28;19966;-69
2021/04/23 10:51:45;;;;;;;;;;;14.10;64.20;;;;;;5104829;28;19920;-69
2021/04/23 10:54:15;;;;;;;;;;;14.00;65.00;;;;;;5074059;28;19913;-69
2021/04/23 10:56:51;;;;;;;;;;;14.00;64.80;;;;;;5072859;28;20269;-69
2021/04/23 10:59:20;;;;;;;;;;;14.10;64.80;;;;;;5073561;28;19916;-70
2021/04/23 11:01:46;;;;;;;;;;;14.20;64.60;;;;;;5068199;28;19920;-69
2021/04/23 11:04:14;;;;;;;;;;;14.00;64.30;;;;;;5060483;28;19920;-70
2021/04/23 11:06:42;;;;;;;;;;;14.00;64.90;;;;;;5062773;28;19913;-70
2021/04/23 11:09:09;;;;;;;;;;;13.80;65.20;;;;;;5061436;28;20254;-70
2021/04/23 11:11:36;;;;;;;;;;;13.80;65.50;;;;;;5054862;28;19923;-69
2021/04/23 11:14:20;;;;;;;;;;;13.80;65.50;;;;;;5073192;28;20338;-69
2021/04/23 11:16:47;;;;;;;;;;;13.90;65.60;;;;;;5067499;28;19982;-70
2021/04/23 11:19:21;;;;;;;;;;;14.10;64.40;;;;;;5074344;28;19939;-70
2021/04/23 11:21:51;;;;;;;;;;;14.10;64.30;;;;;;5077060;28;19944;-70
2021/04/23 11:24:18;;;;;;;;;;;14.10;64.70;;;;;;5110802;28;19981;-70
2021/04/23 11:29:26;;;;;;;;;;;14.30;62.80;;;;;;5074553;28;20306;-69
2021/04/23 11:32:11;;;;;;;;;;;14.20;62.80;;;;;;5074847;28;20003;-69
2021/04/23 11:34:42;;;;;;;;;;;14.10;63.30;;;;;;5077000;28;19913;-70
2021/04/23 11:37:09;;;;;;;;;;;14.20;63.20;;;;;;5067919;28;20436;-69
2021/04/23 11:39:45;;;;;;;;;;;14.10;63.20;;;;;;5075265;28;20379;-69
2021/04/23 11:42:11;;;;;;;;;;;14.20;63.10;;;;;;5076476;28;19917;-69
2021/04/23 11:44:44;;;;;;;;;;;14.10;63.50;;;;;;5074663;28;19912;-69
2021/04/23 11:47:10;;;;;;;;;;;14.20;63.40;;;;;;5073572;28;20334;-69
2021/04/23 11:49:37;;;;;;;;;;;14.10;63.40;;;;;;5076799;28;20227;-69
2021/04/23 11:52:04;;;;;;;;;;;14.00;63.90;;;;;;5075701;28;20009;-69
2021/04/23 11:54:33;;;;;;;;;;;14.00;63.80;;;;;;5077174;28;19920;-69
2021/04/23 11:57:01;;;;;;;;;;;14.10;64.40;;;;;;5077259;28;19972;-69
2021/04/23 11:59:27;;;;;;;;;;;14.00;64.10;;;;;;5077052;28;19958;-69
2021/04/23 12:01:53;;;;;;;;;;;14.20;63.00;;;;;;5068553;28;20266;-69
2021/04/23 12:04:38;;;;;;;;;;;14.10;63.30;;;;;;5057628;28;20334;-69
2021/04/23 12:07:04;;;;;;;;;;;14.10;63.30;;;;;;5075775;28;20370;-69
2021/04/23 12:09:30;;;;;;;;;;;14.10;63.50;;;;;;5076562;28;19956;-69
2021/04/23 12:12:03;;;;;;;;;;;14.10;63.40;;;;;;5108302;28;19955;-69
2021/04/23 12:14:42;;;;;;;;;;;14.10;63.20;;;;;;5074353;28;19917;-69
2021/04/23 12:17:08;;;;;;;;;;;14.00;63.60;;;;;;5070955;28;20338;-70
2021/04/23 12:19:34;;;;;;;;;;;14.10;63.30;;;;;;5075982;28;20001;-69
2021/04/23 12:22:00;;;;;;;;;;;14.20;63.40;;;;;;5076295;28;19916;-70
2021/04/23 12:24:26;;;;;;;;;;;14.10;63.40;;;;;;5075868;28;20313;-69
2021/04/23 12:26:52;;;;;;;;;;;14.00;64.10;;;;;;5076014;28;19916;-69
2021/04/23 12:29:22;;;;;;;;;;;13.90;64.20;;;;;;5075613;28;20354;-69
2021/04/23 12:31:48;;;;;;;;;;;13.90;64.40;;;;;;5065439;28;19912;-70
2021/04/23 12:34:15;;;;;;;;;;;14.10;63.90;;;;;;5075912;28;19999;-69
2021/04/23 12:36:48;;;;;;;;;;;14.00;64.30;;;;;;5072502;28;20045;-69
2021/04/23 12:39:19;;;;;;;;;;;14.10;64.90;;;;;;5073952;28;19912;-69
2021/04/23 12:41:47;;;;;;;;;;;14.20;64.10;;;;;;5076144;28;19916;-69
2021/04/23 12:44:18;;;;;;;;;;;14.10;64.10;;;;;;5075769;28;19913;-69
2021/04/23 12:47:07;;;;;;;;;;;14.10;64.20;;;;;;5073773;28;19998;-69
2021/04/23 12:49:38;;;;;;;;;;;14.00;64.80;;;;;;5067453;28;20026;-69
2021/04/23 12:52:08;;;;;;;;;;;14.10;64.80;;;;;;5074387;28;20374;-69
2021/04/23 12:54:35;;;;;;;;;;;14.20;64.50;;;;;;5074581;28;19919;-69
2021/04/23 12:57:06;;;;;;;;;;;14.00;64.70;;;;;;5075246;28;20346;-69
2021/04/23 12:59:38;;;;;;;;;;;14.20;64.10;;;;;;5057155;28;19915;-69
2021/04/23 13:02:06;;;;;;;;;;;14.00;64.50;;;;;;5068272;28;19913;-69
2021/04/23 13:04:32;;;;;;;;;;;14.20;63.80;;;;;;5074783;28;19959;-69
2021/04/23 13:07:18;;;;;;;;;;;14.10;63.60;;;;;;5056661;28;19909;-70
2021/04/23 13:09:48;;;;;;;;;;;14.00;64.20;;;;;;5071198;28;19916;-69
2021/04/23 13:12:17;;;;;;;;;;;13.90;64.60;;;;;;5056101;28;19912;-69
2021/04/23 13:14:44;;;;;;;;;;;13.90;64.70;;;;;;5074005;28;19974;-69
2021/04/23 13:17:10;;;;;;;;;;;13.90;65.10;;;;;;5074971;28;19923;-70
2021/04/23 13:19:40;;;;;;;;;;;13.90;64.70;;;;;;5074384;28;19928;-69
2021/04/23 13:22:25;;;;;;;;;;;14.10;64.40;;;;;;5073318;28;20010;-69
2021/04/23 13:25:11;;;;;;;;;;;13.90;65.00;;;;;;5074394;28;20006;-69
2021/04/23 13:27:38;;;;;;;;;;;13.90;64.80;;;;;;5074936;28;19977;-69
2021/04/23 13:30:05;;;;;;;;;;;13.80;64.80;;;;;;5074558;28;20274;-69
2021/04/23 13:32:50;;;;;;;;;;;13.80;65.00;;;;;;5074068;28;19916;-70
2021/04/23 13:35:30;;;;;;;;;;;14.00;64.60;;;;;;5073713;28;19916;-70
2021/04/23 13:38:15;;;;;;;;;;;14.20;64.00;;;;;;5071870;28;19924;-69
2021/04/23 13:40:41;;;;;;;;;;;14.10;63.60;;;;;;5074949;28;19913;-70
2021/04/23 13:43:09;;;;;;;;;;;13.90;64.40;;;;;;5072978;28;20312;-69
2021/04/23 13:45:36;;;;;;;;;;;13.70;64.80;;;;;;5069127;28;19924;-69
2021/04/23 13:48:15;;;;;;;;;;;13.90;64.90;;;;;;5073124;28;19944;-69
2021/04/23 13:50:41;;;;;;;;;;;14.10;64.10;;;;;;5073885;28;19913;-69
2021/04/23 13:53:07;;;;;;;;;;;14.00;64.00;;;;;;5071822;28;19916;-69
2021/04/23 13:55:33;;;;;;;;;;;13.80;64.30;;;;;;5074182;28;20400;-70
2021/04/23 13:58:00;;;;;;;;;;;13.90;64.40;;;;;;5073670;28;20350;-69
2021/04/23 14:00:27;;;;;;;;;;;14.00;64.20;;;;;;5075861;28;19923;-69
2021/04/23 14:03:00;;;;;;;;;;;14.00;63.80;;;;;;5072532;28;19954;-69
2021/04/23 14:05:26;;;;;;;;;;;14.10;63.70;;;;;;5074624;28;20342;-70
2021/04/23 14:07:52;;;;;;;;;;;14.00;63.60;;;;;;5069513;28;19927;-69
2021/04/23 14:10:19;;;;;;;;;;;14.00;64.00;;;;;;5073657;28;20323;-69
2021/04/23 14:12:45;;;;;;;;;;;13.90;64.40;;;;;;5072947;28;19912;-69
2021/04/23 14:15:12;;;;;;;;;;;14.10;63.90;;;;;;5074079;28;19916;-69
2021/04/23 14:17:38;;;;;;;;;;;14.20;63.70;;;;;;5071262;28;20295;-70
2021/04/23 14:20:04;;;;;;;;;;;14.10;63.50;;;;;;5075278;28;19917;-70
2021/04/23 14:22:30;;;;;;;;;;;14.00;63.70;;;;;;5073443;28;20274;-69